Time;durP1;ratioP1;P1;durP2;ratioP2;P2;SDS_P1;SDS_P2;PMS_P1;PMS_P2;Temp;Humidity;BMP_temperature;BMP_pressure;BME280_temperature;BME280_humidity;BME280_pressure;Samples;Min_cycle;Max_cycle;Signal;HPM_P1;HPM_P2
2023/01/15 00:01:27;;;;;;;1.13;0.30;;;;;;;;;;5002850;28;20231;-56
2023/01/15 00:03:54;;;;;;;0.43;0.40;;;;;;;;;;4999034;28;20215;-59
2023/01/15 00:06:22;;;;;;;2.57;0.40;;;;;;;;;;5001690;28;20200;-58
2023/01/15 00:08:51;;;;;;;0.83;0.50;;;;;;;;;;5002680;28;20209;-60
2023/01/15 00:11:18;;;;;;;0.63;0.40;;;;;;;;;;5000744;28;20204;-56
2023/01/15 00:13:45;;;;;;;0.50;0.50;;;;;;;;;;5003937;28;20219;-59
2023/01/15 00:16:13;;;;;;;1.17;0.50;;;;;;;;;;5007081;28;20228;-59
2023/01/15 00:18:41;;;;;;;0.97;0.50;;;;;;;;;;5011421;28;20197;-58
2023/01/15 00:21:08;;;;;;;0.93;0.50;;;;;;;;;;5006533;28;20196;-59
2023/01/15 00:29:07;;;;;;;0.40;0.40;;;;;;;;;;5007921;28;20212;-59
2023/01/15 00:31:35;;;;;;;3.50;0.57;;;;;;;;;;5004464;28;20204;-54
2023/01/15 00:34:02;;;;;;;0.80;0.50;;;;;;;;;;5001836;28;20201;-59
2023/01/15 00:36:30;;;;;;;0.50;0.50;;;;;;;;;;5008398;28;20211;-55
2023/01/15 00:38:57;;;;;;;0.60;0.43;;;;;;;;;;5006251;28;20201;-55
2023/01/15 00:41:25;;;;;;;0.50;0.50;;;;;;;;;;5001408;28;20209;-60
2023/01/15 00:43:52;;;;;;;0.70;0.40;;;;;;;;;;5001198;28;20216;-58
2023/01/15 00:46:20;;;;;;;0.40;0.30;;;;;;;;;;5004339;28;20212;-56
2023/01/15 00:48:47;;;;;;;0.37;0.27;;;;;;;;;;5008080;28;20201;-59
2023/01/15 00:51:14;;;;;;;0.20;0.20;;;;;;;;;;5013547;28;20201;-59
2023/01/15 00:53:41;;;;;;;0.40;0.30;;;;;;;;;;5006517;28;20201;-59
2023/01/15 00:56:08;;;;;;;0.40;0.40;;;;;;;;;;5006747;28;20209;-59
2023/01/15 00:58:36;;;;;;;0.30;0.30;;;;;;;;;;5009538;28;20568;-59
2023/01/15 01:01:04;;;;;;;0.43;0.30;;;;;;;;;;5009595;28;20197;-59
2023/01/15 01:03:31;;;;;;;0.70;0.40;;;;;;;;;;5007216;28;20229;-59
2023/01/15 01:06:00;;;;;;;0.40;0.40;;;;;;;;;;5007542;28;20205;-57
2023/01/15 01:08:28;;;;;;;0.80;0.40;;;;;;;;;;5004679;28;20204;-58
2023/01/15 01:11:01;;;;;;;0.40;0.27;;;;;;;;;;5008435;28;20205;-59
2023/01/15 01:13:28;;;;;;;0.50;0.50;;;;;;;;;;5003658;28;20201;-57
2023/01/15 01:15:57;;;;;;;0.37;0.23;;;;;;;;;;5005828;28;20212;-59
2023/01/15 01:18:24;;;;;;;0.33;0.33;;;;;;;;;;5006054;28;20205;-59
2023/01/15 01:20:51;;;;;;;0.90;0.20;;;;;;;;;;5004764;28;20219;-55
2023/01/15 01:23:19;;;;;;;0.20;0.20;;;;;;;;;;5007186;28;20232;-59
2023/01/15 01:25:46;;;;;;;0.30;0.30;;;;;;;;;;5014617;28;20205;-59
2023/01/15 01:28:13;;;;;;;0.30;0.30;;;;;;;;;;5011258;28;20244;-59
2023/01/15 01:30:41;;;;;;;0.30;0.30;;;;;;;;;;5014399;28;20205;-58
2023/01/15 01:33:09;;;;;;;0.30;0.23;;;;;;;;;;5001424;28;20228;-56
2023/01/15 01:35:36;;;;;;;0.70;0.40;;;;;;;;;;5005307;28;20240;-59
2023/01/15 01:38:03;;;;;;;0.50;0.40;;;;;;;;;;5012640;28;20205;-57
2023/01/15 01:40:30;;;;;;;0.30;0.20;;;;;;;;;;5004212;28;20208;-59
2023/01/15 01:42:58;;;;;;;0.73;0.40;;;;;;;;;;5002787;28;20229;-59
2023/01/15 01:45:27;;;;;;;0.20;0.20;;;;;;;;;;5004891;28;20463;-58
2023/01/15 01:47:55;;;;;;;0.17;0.17;;;;;;;;;;5008615;28;20243;-59
2023/01/15 01:50:24;;;;;;;0.23;0.23;;;;;;;;;;5005683;28;20228;-59
2023/01/15 01:52:54;;;;;;;0.10;0.10;;;;;;;;;;5010137;28;20205;-59
2023/01/15 01:55:22;;;;;;;0.80;0.20;;;;;;;;;;5007741;28;20219;-59
2023/01/15 01:57:50;;;;;;;1.13;0.20;;;;;;;;;;5003071;28;20209;-55
2023/01/15 02:00:17;;;;;;;0.50;0.30;;;;;;;;;;5003485;28;20208;-55
2023/01/15 02:02:45;;;;;;;0.10;0.10;;;;;;;;;;5007091;28;20224;-55
2023/01/15 02:05:14;;;;;;;0.20;0.20;;;;;;;;;;5000929;28;20208;-55
2023/01/15 02:07:43;;;;;;;0.13;0.10;;;;;;;;;;5003270;28;20208;-59
2023/01/15 02:10:14;;;;;;;0.20;0.20;;;;;;;;;;5004174;28;20201;-58
2023/01/15 02:12:43;;;;;;;0.10;0.10;;;;;;;;;;5002194;28;20263;-57
2023/01/15 02:15:14;;;;;;;0.30;0.20;;;;;;;;;;5000748;28;20205;-58
2023/01/15 02:17:44;;;;;;;1.03;0.30;;;;;;;;;;5006725;28;20228;-57
2023/01/15 02:20:20;;;;;;;0.10;0.10;;;;;;;;;;5005333;28;20211;-58
2023/01/15 02:22:53;;;;;;;0.20;0.20;;;;;;;;;;5005565;28;20216;-56
2023/01/15 02:25:24;;;;;;;0.10;0.10;;;;;;;;;;5003768;28;20211;-59
2023/01/15 02:27:53;;;;;;;1.07;0.17;;;;;;;;;;5008409;28;20233;-59
2023/01/15 02:30:25;;;;;;;0.20;0.20;;;;;;;;;;5002524;28;20208;-55
2023/01/15 02:32:54;;;;;;;0.67;0.20;;;;;;;;;;5004233;28;20205;-57
2023/01/15 02:35:24;;;;;;;1.23;0.30;;;;;;;;;;5006547;28;20201;-59
2023/01/15 02:37:52;;;;;;;0.33;0.17;;;;;;;;;;5003751;28;20212;-53
2023/01/15 02:40:20;;;;;;;0.10;0.10;;;;;;;;;;5001828;28;20201;-57
2023/01/15 02:42:48;;;;;;;1.13;0.20;;;;;;;;;;5007641;28;20228;-59
2023/01/15 02:45:18;;;;;;;0.40;0.20;;;;;;;;;;5002610;28;20197;-59
2023/01/15 02:47:47;;;;;;;0.53;0.20;;;;;;;;;;5004251;28;20224;-59
2023/01/15 02:50:16;;;;;;;0.93;0.33;;;;;;;;;;5007184;28;20211;-59
2023/01/15 02:52:45;;;;;;;0.40;0.40;;;;;;;;;;5002349;28;20339;-59
2023/01/15 02:55:14;;;;;;;0.17;0.17;;;;;;;;;;5004842;28;20231;-59
2023/01/15 02:57:42;;;;;;;0.47;0.27;;;;;;;;;;5003385;28;20227;-56
2023/01/15 03:00:11;;;;;;;0.63;0.27;;;;;;;;;;5002803;28;20212;-58
2023/01/15 03:02:44;;;;;;;0.97;0.13;;;;;;;;;;5007777;28;20285;-57
2023/01/15 03:05:14;;;;;;;0.63;0.30;;;;;;;;;;5002725;28;20220;-56
2023/01/15 03:07:43;;;;;;;0.30;0.20;;;;;;;;;;5007576;28;20215;-59
2023/01/15 03:10:11;;;;;;;0.33;0.10;;;;;;;;;;5002681;28;20204;-58
2023/01/15 03:18:10;;;;;;;0.20;0.20;;;;;;;;;;5003521;28;20197;-58
2023/01/15 03:20:38;;;;;;;0.10;0.10;;;;;;;;;;5000827;28;20204;-57
2023/01/15 03:23:08;;;;;;;0.23;0.23;;;;;;;;;;5001723;28;20216;-59
2023/01/15 03:25:38;;;;;;;0.40;0.27;;;;;;;;;;5007573;28;20205;-59
2023/01/15 03:28:06;;;;;;;0.30;0.10;;;;;;;;;;5002900;28;20248;-56
2023/01/15 03:30:33;;;;;;;0.40;0.20;;;;;;;;;;5002880;28;20216;-58
2023/01/15 03:33:01;;;;;;;1.13;0.40;;;;;;;;;;5011027;28;20208;-59
2023/01/15 03:35:44;;;;;;;0.10;0.10;;;;;;;;;;5002356;28;20205;-58
2023/01/15 03:38:11;;;;;;;0.10;0.10;;;;;;;;;;5005188;28;20205;-59
2023/01/15 03:40:41;;;;;;;0.63;0.23;;;;;;;;;;5003092;28;20205;-59
2023/01/15 03:45:53;;;;;;;1.93;0.10;;;;;;;;;;4992132;28;20205;-59
2023/01/15 03:48:22;;;;;;;0.10;0.10;;;;;;;;;;5006256;28;20203;-59
2023/01/15 03:50:52;;;;;;;0.13;0.10;;;;;;;;;;5000603;28;20205;-59
2023/01/15 03:53:22;;;;;;;0.30;0.10;;;;;;;;;;4999876;28;20568;-59
2023/01/15 03:55:53;;;;;;;0.03;0.03;;;;;;;;;;5002576;28;20220;-59
2023/01/15 03:58:24;;;;;;;0.60;0.20;;;;;;;;;;5002715;28;20201;-57
2023/01/15 04:00:52;;;;;;;0.30;0.10;;;;;;;;;;5009649;28;20208;-59
2023/01/15 04:03:21;;;;;;;0.00;0.00;;;;;;;;;;5001028;28;20228;-59
2023/01/15 04:05:48;;;;;;;0.23;0.23;;;;;;;;;;5007583;28;20215;-59
2023/01/15 04:08:17;;;;;;;0.00;0.00;;;;;;;;;;5010527;28;20201;-58
2023/01/15 04:10:52;;;;;;;0.07;0.07;;;;;;;;;;5007185;28;20202;-59
2023/01/15 04:13:19;;;;;;;0.33;0.20;;;;;;;;;;5006278;28;20200;-59
2023/01/15 04:15:46;;;;;;;0.10;0.10;;;;;;;;;;5005433;28;20216;-59
2023/01/15 04:18:13;;;;;;;0.50;0.10;;;;;;;;;;5005772;28;20212;-57
2023/01/15 04:20:40;;;;;;;0.30;0.10;;;;;;;;;;5003938;28;20227;-59
2023/01/15 04:23:07;;;;;;;0.20;0.20;;;;;;;;;;5005077;28;20227;-58
2023/01/15 04:25:36;;;;;;;0.20;0.20;;;;;;;;;;5006857;28;20204;-59
2023/01/15 04:28:03;;;;;;;0.30;0.00;;;;;;;;;;5008067;28;20228;-59
2023/01/15 04:30:30;;;;;;;0.40;0.10;;;;;;;;;;5004109;28;20205;-54
2023/01/15 04:32:58;;;;;;;0.10;0.10;;;;;;;;;;5004988;28;20212;-55
2023/01/15 04:35:25;;;;;;;0.20;0.20;;;;;;;;;;5005700;28;20213;-59
2023/01/15 04:37:54;;;;;;;0.10;0.00;;;;;;;;;;5011680;28;20208;-58
2023/01/15 04:45:53;;;;;;;0.10;0.10;;;;;;;;;;5006689;28;20208;-58
2023/01/15 04:48:20;;;;;;;0.17;0.10;;;;;;;;;;5007007;28;20201;-60
2023/01/15 04:50:47;;;;;;;0.20;0.10;;;;;;;;;;5004474;28;20200;-60
2023/01/15 04:53:14;;;;;;;0.20;0.10;;;;;;;;;;5001671;28;20200;-60
2023/01/15 04:55:41;;;;;;;0.10;0.10;;;;;;;;;;5004934;28;20211;-59
2023/01/15 04:58:10;;;;;;;0.47;0.20;;;;;;;;;;5007490;28;20204;-56
2023/01/15 05:00:37;;;;;;;0.40;0.10;;;;;;;;;;5003830;28;20204;-59
2023/01/15 05:03:04;;;;;;;0.47;0.10;;;;;;;;;;5005220;28;20236;-58
2023/01/15 05:05:31;;;;;;;0.20;0.10;;;;;;;;;;5004830;28;20197;-55
2023/01/15 05:07:58;;;;;;;0.10;0.10;;;;;;;;;;5006511;28;20239;-59
2023/01/15 05:10:26;;;;;;;0.40;0.20;;;;;;;;;;5008541;28;20205;-55
2023/01/15 05:12:53;;;;;;;0.10;0.10;;;;;;;;;;5014785;28;20208;-58
2023/01/15 05:15:21;;;;;;;0.20;0.20;;;;;;;;;;5011237;28;20208;-58
2023/01/15 05:17:48;;;;;;;0.10;0.10;;;;;;;;;;5009387;28;20201;-59
2023/01/15 05:20:15;;;;;;;0.03;0.03;;;;;;;;;;5007366;28;20223;-59
2023/01/15 05:22:43;;;;;;;0.00;0.00;;;;;;;;;;5012063;28;20197;-59
2023/01/15 05:25:10;;;;;;;0.47;0.10;;;;;;;;;;5012492;28;20200;-58
2023/01/15 05:27:37;;;;;;;0.00;0.00;;;;;;;;;;5011128;28;20228;-61
2023/01/15 05:30:05;;;;;;;0.87;0.30;;;;;;;;;;5009605;28;20213;-59
2023/01/15 05:32:33;;;;;;;0.97;0.20;;;;;;;;;;5009871;28;20238;-59
2023/01/15 05:35:00;;;;;;;0.00;0.00;;;;;;;;;;5010899;28;20196;-59
2023/01/15 05:37:30;;;;;;;0.20;0.10;;;;;;;;;;5011106;28;20208;-59
2023/01/15 05:39:57;;;;;;;0.00;0.00;;;;;;;;;;5011011;28;20197;-59
2023/01/15 05:42:24;;;;;;;0.83;0.10;;;;;;;;;;5002970;28;20208;-58
2023/01/15 05:44:51;;;;;;;0.63;0.20;;;;;;;;;;5005075;28;20224;-59
2023/01/15 05:47:18;;;;;;;0.10;0.10;;;;;;;;;;5002969;28;20201;-59
2023/01/15 05:49:49;;;;;;;1.17;0.10;;;;;;;;;;5009722;28;20216;-58
2023/01/15 05:52:16;;;;;;;0.10;0.10;;;;;;;;;;5007986;28;20201;-59
2023/01/15 05:54:43;;;;;;;0.00;0.00;;;;;;;;;;5003233;28;20212;-56
2023/01/15 05:57:12;;;;;;;0.00;0.00;;;;;;;;;;5003924;28;20209;-59
2023/01/15 05:59:40;;;;;;;0.13;0.10;;;;;;;;;;5011186;28;20255;-59
2023/01/15 06:02:07;;;;;;;0.43;0.37;;;;;;;;;;5008975;28;20224;-58
2023/01/15 06:04:34;;;;;;;0.10;0.10;;;;;;;;;;5005447;28;20221;-59
2023/01/15 06:07:02;;;;;;;0.47;0.10;;;;;;;;;;5005900;28;20201;-59
2023/01/15 06:09:30;;;;;;;2.00;0.20;;;;;;;;;;5004056;28;20215;-59
2023/01/15 06:11:57;;;;;;;0.53;0.27;;;;;;;;;;5005062;28;20201;-58
2023/01/15 06:14:24;;;;;;;1.53;0.30;;;;;;;;;;5007863;28;20201;-59
2023/01/15 06:16:52;;;;;;;2.73;0.63;;;;;;;;;;5007304;28;20209;-59
2023/01/15 06:19:19;;;;;;;0.83;0.50;;;;;;;;;;5003781;28;20212;-59
2023/01/15 06:21:46;;;;;;;1.43;0.60;;;;;;;;;;5003439;28;20215;-59
2023/01/15 06:24:15;;;;;;;1.00;0.60;;;;;;;;;;5005775;28;20213;-58
2023/01/15 06:26:42;;;;;;;3.70;0.67;;;;;;;;;;5004305;28;20248;-59
2023/01/15 06:29:09;;;;;;;4.00;0.90;;;;;;;;;;5005335;28;20205;-57
2023/01/15 06:31:36;;;;;;;2.63;0.60;;;;;;;;;;5005129;28;20506;-58
2023/01/15 06:34:04;;;;;;;2.07;0.80;;;;;;;;;;5011528;28;20197;-59
2023/01/15 06:36:31;;;;;;;0.40;0.40;;;;;;;;;;5011150;28;20216;-59
2023/01/15 06:38:58;;;;;;;1.90;0.30;;;;;;;;;;5005235;28;20473;-59
2023/01/15 06:49:42;;;;;;;0.77;0.40;;;;;;;;;;5010918;28;20246;-58
2023/01/15 06:52:09;;;;;;;0.90;0.40;;;;;;;;;;5009640;28;20201;-59
2023/01/15 06:54:36;;;;;;;0.37;0.37;;;;;;;;;;5007844;28;20201;-58
2023/01/15 06:57:05;;;;;;;0.33;0.13;;;;;;;;;;5012372;28;20201;-59
2023/01/15 06:59:32;;;;;;;0.20;0.20;;;;;;;;;;5009724;28;20207;-59
2023/01/15 07:01:59;;;;;;;0.50;0.30;;;;;;;;;;5010587;28;20344;-59
2023/01/15 07:04:27;;;;;;;0.73;0.30;;;;;;;;;;5010742;28;20224;-57
2023/01/15 07:06:54;;;;;;;0.33;0.20;;;;;;;;;;5011187;28;20205;-60
2023/01/15 07:09:21;;;;;;;1.07;0.40;;;;;;;;;;5011033;28;20193;-59
2023/01/15 07:11:51;;;;;;;0.43;0.43;;;;;;;;;;5009497;28;20204;-59
2023/01/15 07:14:21;;;;;;;1.53;0.50;;;;;;;;;;5009920;28;20217;-57
2023/01/15 07:16:48;;;;;;;1.40;0.37;;;;;;;;;;5006815;28;20212;-58
2023/01/15 07:19:15;;;;;;;1.80;0.30;;;;;;;;;;5010845;28;20201;-57
2023/01/15 07:21:42;;;;;;;1.10;0.20;;;;;;;;;;5012211;28;20200;-59
2023/01/15 07:24:10;;;;;;;1.10;0.40;;;;;;;;;;5006427;28;20227;-59
2023/01/15 07:26:37;;;;;;;2.43;0.60;;;;;;;;;;5007684;28;20236;-59
2023/01/15 07:29:05;;;;;;;1.10;0.40;;;;;;;;;;5006614;28;20197;-59
2023/01/15 07:31:33;;;;;;;2.13;0.40;;;;;;;;;;5010904;28;20193;-59
2023/01/15 07:34:00;;;;;;;2.30;0.70;;;;;;;;;;5009703;28;20216;-59
2023/01/15 07:36:28;;;;;;;0.50;0.50;;;;;;;;;;5008627;28;20219;-57
2023/01/15 07:38:55;;;;;;;1.27;0.50;;;;;;;;;;5011465;28;20216;-60
2023/01/15 07:49:47;;;;;;;0.33;0.27;;;;;;;;;;5008502;28;20207;-59
2023/01/15 07:52:14;;;;;;;2.30;0.50;;;;;;;;;;5003410;28;20251;-59
2023/01/15 07:54:42;;;;;;;1.60;0.53;;;;;;;;;;5009408;28;20502;-59
2023/01/15 07:57:09;;;;;;;1.20;0.50;;;;;;;;;;5010101;28;20209;-59
2023/01/15 07:59:36;;;;;;;0.60;0.30;;;;;;;;;;5010168;28;20201;-59
2023/01/15 08:02:05;;;;;;;1.23;0.40;;;;;;;;;;5008364;28;20200;-59
2023/01/15 08:04:32;;;;;;;1.07;0.30;;;;;;;;;;5008878;28;20236;-58
2023/01/15 08:07:00;;;;;;;0.50;0.33;;;;;;;;;;5008176;28;20280;-59
2023/01/15 08:09:27;;;;;;;1.40;0.40;;;;;;;;;;5009587;28;20201;-59
2023/01/15 08:17:25;;;;;;;0.70;0.40;;;;;;;;;;5009469;28;20323;-59
2023/01/15 08:19:52;;;;;;;1.03;0.50;;;;;;;;;;5010540;28;20209;-59
2023/01/15 08:22:19;;;;;;;0.63;0.63;;;;;;;;;;5011520;28;20205;-58
2023/01/15 08:24:46;;;;;;;0.77;0.57;;;;;;;;;;5001052;28;20232;-55
2023/01/15 08:27:13;;;;;;;0.20;0.20;;;;;;;;;;5007812;28;20232;-59
2023/01/15 08:29:41;;;;;;;1.40;0.40;;;;;;;;;;5007236;28;20197;-56
2023/01/15 08:32:08;;;;;;;0.63;0.30;;;;;;;;;;5007955;28;20209;-58
2023/01/15 08:34:36;;;;;;;1.50;0.40;;;;;;;;;;5004743;28;20200;-59
2023/01/15 08:37:03;;;;;;;0.67;0.47;;;;;;;;;;5007543;28;20205;-59
2023/01/15 08:39:31;;;;;;;0.70;0.70;;;;;;;;;;5007215;28;20220;-58
2023/01/15 08:41:58;;;;;;;1.37;0.40;;;;;;;;;;5006490;28;20209;-59
2023/01/15 08:44:25;;;;;;;1.43;0.40;;;;;;;;;;5006859;28;20209;-58
2023/01/15 08:46:53;;;;;;;0.37;0.30;;;;;;;;;;5004898;28;20209;-59
2023/01/15 08:49:20;;;;;;;0.40;0.40;;;;;;;;;;5006854;28;20205;-59
2023/01/15 08:51:50;;;;;;;1.23;0.40;;;;;;;;;;5009143;28;20219;-58
2023/01/15 08:54:18;;;;;;;2.23;0.47;;;;;;;;;;5009352;28;20209;-58
2023/01/15 08:56:45;;;;;;;0.53;0.37;;;;;;;;;;5006293;28;20201;-59
2023/01/15 08:59:13;;;;;;;1.03;0.40;;;;;;;;;;5009453;28;20201;-59
2023/01/15 09:01:40;;;;;;;0.73;0.40;;;;;;;;;;5006885;28;20204;-59
2023/01/15 09:04:07;;;;;;;0.40;0.40;;;;;;;;;;5004438;28;20209;-59
2023/01/15 09:06:34;;;;;;;0.67;0.67;;;;;;;;;;5008980;28;20209;-59
2023/01/15 09:09:03;;;;;;;0.40;0.30;;;;;;;;;;5013080;28;20205;-58
2023/01/15 09:11:30;;;;;;;2.23;0.40;;;;;;;;;;5010803;28;20204;-57
2023/01/15 09:13:57;;;;;;;0.63;0.40;;;;;;;;;;5011086;28;20209;-59
2023/01/15 09:16:26;;;;;;;0.67;0.50;;;;;;;;;;5012412;28;20201;-59
2023/01/15 09:18:53;;;;;;;2.63;0.50;;;;;;;;;;5011206;28;20224;-59
2023/01/15 09:21:20;;;;;;;1.87;0.53;;;;;;;;;;5015619;28;20208;-60
2023/01/15 09:23:47;;;;;;;2.33;0.40;;;;;;;;;;5015142;28;20205;-59
2023/01/15 09:26:26;;;;;;;1.17;0.57;;;;;;;;;;5014887;28;20224;-59
2023/01/15 09:28:53;;;;;;;3.47;0.60;;;;;;;;;;5014835;28;20207;-59
2023/01/15 09:31:20;;;;;;;0.60;0.40;;;;;;;;;;5015305;28;20299;-59
2023/01/15 09:33:47;;;;;;;4.70;0.60;;;;;;;;;;5015111;28;20215;-59
2023/01/15 09:36:18;;;;;;;1.13;0.53;;;;;;;;;;5015133;28;20209;-59
2023/01/15 09:38:45;;;;;;;1.63;0.50;;;;;;;;;;5014740;28;20216;-58
2023/01/15 09:42:04;;;;;;;2.30;0.70;;;;;;;;;;5014993;28;20209;-59
2023/01/15 09:44:08;;;;;;;0.57;0.33;;;;;;;;;;5010662;28;20205;-59
2023/01/15 09:46:39;;;;;;;0.77;0.30;;;;;;;;;;5014825;28;20209;-57
2023/01/15 09:49:14;;;;;;;1.30;0.50;;;;;;;;;;5004180;28;20218;-59
2023/01/15 09:51:46;;;;;;;0.73;0.70;;;;;;;;;;5014940;28;20200;-60
2023/01/15 09:54:18;;;;;;;1.27;0.93;;;;;;;;;;5015057;28;20299;-59
2023/01/15 09:56:45;;;;;;;1.37;0.80;;;;;;;;;;5012341;28;20211;-60
2023/01/15 09:59:19;;;;;;;1.97;1.40;;;;;;;;;;5014521;28;20230;-59
2023/01/15 10:01:47;;;;;;;2.43;0.90;;;;;;;;;;5007756;28;20303;-59
2023/01/15 10:04:21;;;;;;;1.83;1.13;;;;;;;;;;5013676;28;20208;-57
2023/01/15 10:06:54;;;;;;;3.17;1.20;;;;;;;;;;5009319;28;20216;-59
2023/01/15 10:09:23;;;;;;;2.13;1.03;;;;;;;;;;5013544;28;20292;-59
2023/01/15 10:14:41;;;;;;;1.57;0.90;;;;;;;;;;5012407;28;20212;-60
2023/01/15 10:17:19;;;;;;;2.07;0.80;;;;;;;;;;5014142;28;20216;-59
2023/01/15 10:19:46;;;;;;;1.27;0.57;;;;;;;;;;5013154;28;20201;-59
2023/01/15 10:22:18;;;;;;;1.73;0.60;;;;;;;;;;5013590;28;20303;-59
2023/01/15 10:24:50;;;;;;;0.87;0.57;;;;;;;;;;5014039;28;20220;-59
2023/01/15 10:27:20;;;;;;;2.77;0.70;;;;;;;;;;5012844;28;20228;-58
2023/01/15 10:29:50;;;;;;;1.97;0.80;;;;;;;;;;5007488;28;20217;-58
2023/01/15 10:32:23;;;;;;;1.47;0.63;;;;;;;;;;5012863;28;20209;-59
2023/01/15 10:35:18;;;;;;;1.80;0.70;;;;;;;;;;5013414;28;20207;-58
2023/01/15 10:37:47;;;;;;;1.07;0.50;;;;;;;;;;5009198;28;20224;-59
2023/01/15 10:40:28;;;;;;;1.33;0.60;;;;;;;;;;5012225;28;20208;-58
2023/01/15 10:42:58;;;;;;;3.43;0.90;;;;;;;;;;5010374;28;20217;-59
2023/01/15 10:45:30;;;;;;;0.73;0.70;;;;;;;;;;5013044;28;20231;-59
2023/01/15 10:48:00;;;;;;;1.67;0.83;;;;;;;;;;5010957;28;20209;-59
2023/01/15 10:50:28;;;;;;;1.13;0.70;;;;;;;;;;5013051;28;20208;-59
2023/01/15 10:53:02;;;;;;;3.47;0.83;;;;;;;;;;5011839;28;20192;-59
2023/01/15 10:55:31;;;;;;;3.20;1.30;;;;;;;;;;5013601;28;20212;-57
2023/01/15 10:58:04;;;;;;;1.33;0.70;;;;;;;;;;5012676;28;20201;-60
2023/01/15 11:00:32;;;;;;;3.60;1.10;;;;;;;;;;5004877;28;20208;-59
2023/01/15 11:03:02;;;;;;;1.90;1.03;;;;;;;;;;5013072;28;20209;-58
2023/01/15 11:05:30;;;;;;;3.23;0.90;;;;;;;;;;5012988;28;20236;-57
2023/01/15 11:07:57;;;;;;;2.83;1.30;;;;;;;;;;5013073;28;20208;-58
2023/01/15 11:10:25;;;;;;;3.53;1.23;;;;;;;;;;5010722;28;20212;-58
2023/01/15 11:21:12;;;;;;;3.83;0.90;;;;;;;;;;5013005;28;20212;-58
2023/01/15 11:23:40;;;;;;;3.07;0.90;;;;;;;;;;5011308;28;20332;-59
2023/01/15 11:26:07;;;;;;;1.80;0.80;;;;;;;;;;5010532;28;20217;-59
2023/01/15 11:28:39;;;;;;;3.27;0.90;;;;;;;;;;5012490;28;20310;-58
2023/01/15 11:31:11;;;;;;;3.00;0.90;;;;;;;;;;5011795;28;20205;-58
2023/01/15 11:33:38;;;;;;;5.00;1.03;;;;;;;;;;5012848;28;20212;-60
2023/01/15 11:36:06;;;;;;;2.73;1.00;;;;;;;;;;5012619;28;20208;-59
2023/01/15 11:38:43;;;;;;;8.53;1.37;;;;;;;;;;5011708;28;20205;-59
2023/01/15 11:41:19;;;;;;;2.90;1.20;;;;;;;;;;5008055;28;20208;-59
2023/01/15 11:52:12;;;;;;;4.27;1.30;;;;;;;;;;5001702;28;20215;-58
2023/01/15 11:54:40;;;;;;;3.20;0.93;;;;;;;;;;5005722;28;20205;-59
2023/01/15 11:57:07;;;;;;;3.87;1.20;;;;;;;;;;5005916;28;20203;-58
2023/01/15 11:59:34;;;;;;;4.07;1.00;;;;;;;;;;5005773;28;20216;-59
2023/01/15 12:02:05;;;;;;;3.93;1.23;;;;;;;;;;5002456;28;20205;-58
2023/01/15 12:04:35;;;;;;;4.90;1.17;;;;;;;;;;5003602;28;20201;-59
2023/01/15 12:07:03;;;;;;;5.03;1.60;;;;;;;;;;5004350;28;20209;-59
2023/01/15 12:09:47;;;;;;;5.40;1.17;;;;;;;;;;5003691;28;20209;-58
2023/01/15 12:12:18;;;;;;;4.23;1.20;;;;;;;;;;5006185;28;20204;-59
2023/01/15 12:14:51;;;;;;;3.83;1.13;;;;;;;;;;5007946;28;20200;-58
2023/01/15 12:17:30;;;;;;;5.10;1.37;;;;;;;;;;5003877;28;20212;-59
2023/01/15 12:20:02;;;;;;;4.87;1.13;;;;;;;;;;5004127;28;20364;-60
2023/01/15 12:22:36;;;;;;;4.70;1.13;;;;;;;;;;4999546;28;20213;-58
2023/01/15 12:25:21;;;;;;;4.47;1.47;;;;;;;;;;5001697;28;20208;-59
2023/01/15 12:27:52;;;;;;;5.27;1.57;;;;;;;;;;5003075;28;20237;-58
2023/01/15 12:30:25;;;;;;;4.07;1.30;;;;;;;;;;4999886;28;20212;-59
2023/01/15 12:32:58;;;;;;;3.57;1.03;;;;;;;;;;5002226;28;20205;-58
2023/01/15 12:35:29;;;;;;;5.90;1.00;;;;;;;;;;5005748;28;20193;-58
2023/01/15 12:37:59;;;;;;;4.40;1.30;;;;;;;;;;5001206;28;20209;-57
2023/01/15 12:40:28;;;;;;;3.37;1.10;;;;;;;;;;5002454;28;20201;-59
2023/01/15 12:45:42;;;;;;;4.73;1.40;;;;;;;;;;5009652;28;20240;-59
2023/01/15 12:48:15;;;;;;;5.00;1.20;;;;;;;;;;5009426;28;20192;-59
2023/01/15 12:50:44;;;;;;;5.03;1.30;;;;;;;;;;5009097;28;20216;-57
2023/01/15 12:53:15;;;;;;;4.13;1.23;;;;;;;;;;5012746;28;20219;-58
2023/01/15 12:55:47;;;;;;;4.20;1.13;;;;;;;;;;5003292;28;20208;-56
2023/01/15 12:58:20;;;;;;;3.40;1.00;;;;;;;;;;5007867;28;20228;-59
2023/01/15 13:00:49;;;;;;;3.33;1.10;;;;;;;;;;5008492;28;20205;-59
2023/01/15 13:03:20;;;;;;;4.77;1.40;;;;;;;;;;5007098;28;20205;-58
2023/01/15 13:05:48;;;;;;;4.97;1.33;;;;;;;;;;5011542;28;20224;-59
2023/01/15 13:08:19;;;;;;;4.20;1.03;;;;;;;;;;5009832;28;20205;-59
2023/01/15 13:10:46;;;;;;;5.37;1.57;;;;;;;;;;5009727;28;20287;-58
2023/01/15 13:13:16;;;;;;;3.63;1.33;;;;;;;;;;5005966;28;20201;-57
2023/01/15 13:15:48;;;;;;;7.47;1.20;;;;;;;;;;5001200;28;20200;-57
2023/01/15 13:18:20;;;;;;;3.53;1.37;;;;;;;;;;5008672;28;20208;-58
2023/01/15 13:20:50;;;;;;;2.83;1.20;;;;;;;;;;5009289;28;20287;-59
2023/01/15 13:23:25;;;;;;;4.03;1.20;;;;;;;;;;5011598;28;20291;-59
2023/01/15 13:26:03;;;;;;;6.43;1.13;;;;;;;;;;5007121;28;20229;-59
2023/01/15 13:28:40;;;;;;;4.27;1.10;;;;;;;;;;5011411;28;20228;-58
2023/01/15 13:31:14;;;;;;;6.83;1.50;;;;;;;;;;5009610;28;20213;-59
2023/01/15 13:33:43;;;;;;;3.47;1.13;;;;;;;;;;5003797;28;20212;-58
2023/01/15 13:36:16;;;;;;;6.37;1.30;;;;;;;;;;5008331;28;20197;-59
2023/01/15 13:38:45;;;;;;;7.63;1.40;;;;;;;;;;5008351;28;20228;-56
2023/01/15 13:42:30;;;;;;;4.77;1.60;;;;;;;;;;5009758;28;20221;-59
2023/01/15 13:44:04;;;;;;;3.00;1.30;;;;;;;;;;5007717;28;20205;-59
2023/01/15 13:46:31;;;;;;;3.53;1.27;;;;;;;;;;5013637;28;20233;-59
2023/01/15 13:48:58;;;;;;;2.43;1.20;;;;;;;;;;5014868;28;20209;-59
2023/01/15 13:51:29;;;;;;;6.60;1.30;;;;;;;;;;5014960;28;20209;-59
2023/01/15 13:53:57;;;;;;;4.47;1.43;;;;;;;;;;5013736;28;20212;-59
2023/01/15 13:56:26;;;;;;;6.43;1.40;;;;;;;;;;5013565;28;20209;-59
2023/01/15 13:58:55;;;;;;;5.60;1.43;;;;;;;;;;5014386;28;20219;-59
2023/01/15 14:01:23;;;;;;;5.03;1.27;;;;;;;;;;5014383;28;20215;-60
2023/01/15 14:03:56;;;;;;;4.37;1.50;;;;;;;;;;5014413;28;20205;-59
2023/01/15 14:06:23;;;;;;;2.80;1.27;;;;;;;;;;5013896;28;20224;-57
2023/01/15 14:08:51;;;;;;;5.13;2.07;;;;;;;;;;5013287;28;20212;-55
2023/01/15 14:11:38;;;;;;;4.30;1.57;;;;;;;;;;5014121;28;20208;-58
2023/01/15 14:14:19;;;;;;;6.93;1.30;;;;;;;;;;5010216;28;20200;-59
2023/01/15 14:16:53;;;;;;;2.87;1.10;;;;;;;;;;5014072;28;20201;-59
2023/01/15 14:19:35;;;;;;;3.30;1.30;;;;;;;;;;5013168;28;20200;-57
2023/01/15 14:22:09;;;;;;;3.97;1.17;;;;;;;;;;5010916;28;20205;-59
2023/01/15 14:24:51;;;;;;;5.80;1.30;;;;;;;;;;5012965;28;20203;-59
2023/01/15 14:27:24;;;;;;;2.10;1.00;;;;;;;;;;5010884;28;20239;-59
2023/01/15 14:29:59;;;;;;;2.67;0.87;;;;;;;;;;5013864;28;20220;-58
2023/01/15 14:32:31;;;;;;;2.97;1.00;;;;;;;;;;5009575;28;20280;-59
2023/01/15 14:35:00;;;;;;;5.00;1.10;;;;;;;;;;5012586;28;20201;-59
2023/01/15 14:37:28;;;;;;;3.23;1.17;;;;;;;;;;5012758;28;20201;-59
2023/01/15 14:39:58;;;;;;;2.63;1.00;;;;;;;;;;5012756;28;20288;-58
2023/01/15 14:45:20;;;;;;;3.73;2.00;;;;;;;;;;5008207;28;20348;-61
2023/01/15 14:47:48;;;;;;;6.50;3.20;;;;;;;;;;5008247;28;20304;-59
2023/01/15 14:50:29;;;;;;;2.53;1.30;;;;;;;;;;5008659;28;20208;-55
2023/01/15 14:53:00;;;;;;;4.50;1.40;;;;;;;;;;5010940;28;20208;-56
2023/01/15 14:55:27;;;;;;;9.27;1.80;;;;;;;;;;5009927;28;20205;-59
2023/01/15 14:57:58;;;;;;;4.53;1.40;;;;;;;;;;5013139;28;20201;-59
2023/01/15 15:00:30;;;;;;;4.23;1.17;;;;;;;;;;5009929;28;20205;-58
2023/01/15 15:02:57;;;;;;;2.27;1.03;;;;;;;;;;5011158;28;20208;-57
2023/01/15 15:05:25;;;;;;;3.90;1.57;;;;;;;;;;5012679;28;20211;-59
2023/01/15 15:07:54;;;;;;;3.80;1.27;;;;;;;;;;5010610;28;20228;-57
2023/01/15 15:10:24;;;;;;;3.47;1.10;;;;;;;;;;5009385;28;20251;-59
2023/01/15 15:12:54;;;;;;;4.73;1.53;;;;;;;;;;5012039;28;20251;-59
2023/01/15 15:15:28;;;;;;;3.67;1.13;;;;;;;;;;5009656;28;20209;-58
2023/01/15 15:17:58;;;;;;;3.70;1.47;;;;;;;;;;5002934;28;20205;-59
2023/01/15 15:20:31;;;;;;;4.50;1.83;;;;;;;;;;5006406;28;20197;-60
2023/01/15 15:23:03;;;;;;;2.30;1.37;;;;;;;;;;5012644;28;20204;-59
2023/01/15 15:25:34;;;;;;;5.10;1.67;;;;;;;;;;5008722;28;20215;-59
2023/01/15 15:28:05;;;;;;;4.63;1.30;;;;;;;;;;5008928;28;20228;-59
2023/01/15 15:30:35;;;;;;;3.20;1.50;;;;;;;;;;5009351;28;20212;-59
2023/01/15 15:33:05;;;;;;;4.37;1.40;;;;;;;;;;5011916;28;20224;-60
2023/01/15 15:35:32;;;;;;;4.67;1.40;;;;;;;;;;5011795;28;20206;-58
2023/01/15 15:38:01;;;;;;;3.57;1.80;;;;;;;;;;5011455;28;20201;-60
2023/01/15 15:40:32;;;;;;;3.57;1.50;;;;;;;;;;5011346;28;20205;-59
2023/01/15 15:48:41;;;;;;;4.83;1.53;;;;;;;;;;5009561;28;20240;-58
2023/01/15 15:51:23;;;;;;;3.47;1.13;;;;;;;;;;5008513;28;20644;-59
2023/01/15 15:53:51;;;;;;;4.90;1.33;;;;;;;;;;5008704;28;20452;-59
2023/01/15 15:56:18;;;;;;;3.67;1.30;;;;;;;;;;5011036;28;20198;-58
2023/01/15 15:58:46;;;;;;;5.23;1.13;;;;;;;;;;5008834;28;20208;-58
2023/01/15 16:01:15;;;;;;;6.90;1.53;;;;;;;;;;5011379;28;20211;-58
2023/01/15 16:03:46;;;;;;;5.97;1.20;;;;;;;;;;5011611;28;20204;-59
2023/01/15 16:06:20;;;;;;;5.33;1.67;;;;;;;;;;5006428;28;20197;-57
2023/01/15 16:08:53;;;;;;;6.33;1.50;;;;;;;;;;5012640;28;20209;-56